Time;durP1;ratioP1;P1;durP2;ratioP2;P2;SDS_P1;SDS_P2;PMS_P1;PMS_P2;Temp;Humidity;BMP_temperature;BMP_pressure;BME280_temperature;BME280_humidity;BME280_pressure;Samples;Min_cycle;Max_cycle;Signal;HPM_P1;HPM_P2
2022/10/26 00:00:07;;;;;;;15.70;6.85;;;11.40;99.90;;;;;;5008127;28;20038;-71
2022/10/26 00:02:33;;;;;;;13.15;6.97;;;11.40;99.90;;;;;;5025716;28;20056;-71
2022/10/26 00:05:01;;;;;;;17.58;7.72;;;11.40;99.90;;;;;;5025170;28;20483;-71
2022/10/26 00:07:30;;;;;;;14.60;7.68;;;11.40;99.90;;;;;;5023411;28;20072;-71
2022/10/26 00:09:56;;;;;;;17.20;7.25;;;11.40;99.90;;;;;;5022025;28;20096;-71
2022/10/26 00:12:21;;;;;;;18.25;8.80;;;11.40;99.90;;;;;;5024762;28;20029;-71
2022/10/26 00:14:47;;;;;;;14.15;7.70;;;11.40;99.90;;;;;;5026211;28;20051;-71
2022/10/26 00:17:13;;;;;;;16.88;7.57;;;11.40;99.90;;;;;;5024865;28;20049;-71
2022/10/26 00:19:38;;;;;;;18.90;7.45;;;11.30;99.90;;;;;;5026962;28;20042;-71
2022/10/26 00:22:04;;;;;;;15.32;7.07;;;11.30;99.90;;;;;;5023912;28;20370;-71
2022/10/26 00:24:30;;;;;;;14.30;7.07;;;11.30;99.90;;;;;;5026231;28;20682;-71
2022/10/26 00:26:56;;;;;;;15.25;7.35;;;11.30;99.90;;;;;;5026746;28;20038;-71
2022/10/26 00:29:21;;;;;;;16.80;7.22;;;11.30;99.90;;;;;;5019926;28;20049;-71
2022/10/26 00:31:47;;;;;;;20.73;7.93;;;11.30;99.90;;;;;;5005838;28;20396;-70
2022/10/26 00:34:13;;;;;;;20.40;8.18;;;11.20;99.90;;;;;;5008868;28;20403;-71
2022/10/26 00:36:39;;;;;;;16.38;8.13;;;11.20;99.90;;;;;;5019013;28;20045;-71
2022/10/26 00:39:04;;;;;;;18.45;7.30;;;11.20;99.90;;;;;;5020193;28;20048;-71
2022/10/26 00:41:32;;;;;;;15.23;7.53;;;11.20;99.90;;;;;;5016510;28;20045;-72
2022/10/26 00:43:59;;;;;;;14.35;7.57;;;11.20;99.90;;;;;;5019757;28;20040;-70
2022/10/26 00:46:34;;;;;;;13.80;8.13;;;11.10;99.90;;;;;;5021960;28;20083;-71
2022/10/26 00:49:10;;;;;;;15.48;7.55;;;11.20;99.90;;;;;;5021190;28;20052;-70
2022/10/26 00:51:47;;;;;;;17.58;8.23;;;11.10;99.90;;;;;;5025244;28;20046;-70
2022/10/26 00:54:19;;;;;;;18.98;7.68;;;11.10;99.90;;;;;;5008236;28;20533;-70
2022/10/26 00:56:47;;;;;;;16.95;7.72;;;11.10;99.90;;;;;;5025301;28;20045;-70
2022/10/26 00:59:15;;;;;;;14.75;7.65;;;11.10;99.90;;;;;;5022124;28;20111;-71
2022/10/26 01:01:43;;;;;;;15.35;7.80;;;11.10;99.90;;;;;;5018437;28;20406;-70
2022/10/26 01:04:09;;;;;;;17.73;8.10;;;11.10;99.90;;;;;;5024513;28;20033;-70
2022/10/26 01:06:36;;;;;;;15.52;8.00;;;11.10;99.90;;;;;;5025633;28;20038;-70
2022/10/26 01:09:03;;;;;;;16.85;8.20;;;11.00;99.90;;;;;;5025416;28;20045;-70
2022/10/26 01:11:29;;;;;;;12.82;7.82;;;11.00;99.90;;;;;;5026029;28;20592;-70
2022/10/26 01:13:57;;;;;;;19.27;8.35;;;11.00;99.90;;;;;;5025400;28;20042;-71
2022/10/26 01:16:33;;;;;;;18.58;7.63;;;11.00;99.90;;;;;;5022569;28;20045;-70
2022/10/26 01:19:33;;;;;;;19.25;9.30;;;10.90;99.90;;;;;;5021293;28;20033;-71
2022/10/26 01:22:19;;;;;;;20.25;8.77;;;10.90;99.90;;;;;;5027730;28;20457;-71
2022/10/26 01:24:53;;;;;;;16.88;8.30;;;10.90;99.90;;;;;;5028682;28;20397;-71
2022/10/26 01:27:33;;;;;;;15.38;8.25;;;10.90;99.90;;;;;;5043465;28;20485;-71
2022/10/26 01:30:26;;;;;;;21.80;8.68;;;11.20;99.90;;;;;;5027457;28;20137;-71
2022/10/26 01:33:07;;;;;;;14.27;8.25;;;10.80;99.90;;;;;;5044832;28;20053;-71
2022/10/26 01:35:54;;;;;;;16.67;9.13;;;10.80;99.90;;;;;;5025839;28;20129;-71
2022/10/26 01:38:47;;;;;;;19.70;9.00;;;10.80;99.90;;;;;;5026958;28;20292;-71
2022/10/26 01:41:19;;;;;;;18.08;9.50;;;10.80;99.90;;;;;;5025522;28;20179;-71
2022/10/26 01:43:51;;;;;;;;;;;10.80;99.90;;;;;;5019823;28;20164;-71
2022/10/26 01:46:20;;;;;;;21.73;8.85;;;10.80;99.90;;;;;;5043023;28;20463;-71
2022/10/26 01:48:49;;;;;;;18.30;9.55;;;10.70;99.90;;;;;;5041782;28;20494;-71
2022/10/26 01:51:16;;;;;;;17.05;8.82;;;10.70;99.90;;;;;;5024971;28;20472;-70
2022/10/26 01:53:46;;;;;;;15.55;9.43;;;10.70;99.90;;;;;;5025207;28;20049;-70
2022/10/26 01:56:18;;;;;;;16.48;9.55;;;10.70;99.90;;;;;;5027990;28;20533;-71
2022/10/26 01:59:02;;;;;;;17.15;9.80;;;10.70;99.90;;;;;;5024667;28;20556;-70
2022/10/26 02:01:50;;;;;;;17.15;9.77;;;10.70;99.90;;;;;;5023168;28;20041;-70
2022/10/26 02:04:44;;;;;;;17.30;9.70;;;10.60;99.90;;;;;;5027933;28;20120;-71
2022/10/26 02:07:33;;;;;;;19.70;10.43;;;10.70;99.90;;;;;;5027909;28;20049;-70
2022/10/26 02:10:08;;;;;;;18.60;10.98;;;10.60;99.90;;;;;;5029019;28;20054;-70
2022/10/26 02:13:01;;;;;;;20.02;10.13;;;10.60;99.90;;;;;;5028532;28;20041;-70
2022/10/26 02:15:45;;;;;;;20.75;10.23;;;10.60;99.90;;;;;;5027402;28;20034;-71
2022/10/26 02:18:20;;;;;;;19.85;11.07;;;10.60;99.90;;;;;;5021453;28;20490;-71
2022/10/26 02:20:50;;;;;;;20.25;10.70;;;10.50;99.90;;;;;;5018419;28;20773;-71
2022/10/26 02:23:18;;;;;;;20.63;10.87;;;10.60;99.90;;;;;;5025642;28;20503;-71
2022/10/26 02:25:49;;;;;;;19.48;10.45;;;10.50;99.90;;;;;;5027450;28;20790;-71
2022/10/26 02:28:20;;;;;;;21.33;10.27;;;10.50;99.90;;;;;;5027704;28;20051;-71
2022/10/26 02:30:48;;;;;;;22.30;10.18;;;10.50;99.90;;;;;;5023190;28;20085;-70
2022/10/26 02:33:14;;;;;;;16.45;10.40;;;10.50;99.90;;;;;;5006404;28;20049;-71
2022/10/26 02:35:44;;;;;;;19.55;10.05;;;10.50;99.90;;;;;;5026529;28;20041;-70
2022/10/26 02:38:12;;;;;;;19.92;10.32;;;10.50;99.90;;;;;;5027754;28;20045;-71
2022/10/26 02:40:38;;;;;;;20.17;10.20;;;10.50;99.90;;;;;;5027365;28;20052;-70
2022/10/26 02:43:08;;;;;;;20.50;10.05;;;10.40;99.90;;;;;;5026145;28;20091;-71
2022/10/26 02:45:40;;;;;;;18.47;10.37;;;10.40;99.90;;;;;;5028234;28;20057;-70
2022/10/26 02:48:06;;;;;;;17.85;9.18;;;10.40;99.90;;;;;;5021613;28;20449;-70
2022/10/26 02:50:42;;;;;;;19.23;10.15;;;10.40;99.90;;;;;;5009112;28;20033;-71
2022/10/26 02:53:23;;;;;;;19.45;9.75;;;10.40;99.90;;;;;;5027035;28;20115;-71
2022/10/26 02:55:50;;;;;;;18.85;9.95;;;10.30;99.90;;;;;;5025318;28;20033;-70
2022/10/26 02:58:33;;;;;;;19.23;9.35;;;10.30;99.90;;;;;;5027998;28;20052;-71
2022/10/26 03:00:59;;;;;;;16.88;8.80;;;10.30;99.90;;;;;;5027672;28;21243;-71
2022/10/26 03:03:25;;;;;;;20.10;9.70;;;10.30;99.90;;;;;;5023560;28;20051;-71
2022/10/26 03:05:50;;;;;;;18.15;9.32;;;10.30;99.90;;;;;;5008900;28;20033;-71
2022/10/26 03:08:16;;;;;;;13.07;8.93;;;10.70;99.90;;;;;;5026389;28;20052;-71
2022/10/26 03:10:44;;;;;;;18.00;9.70;;;10.30;99.90;;;;;;5025616;28;20052;-70
2022/10/26 03:13:11;;;;;;;14.05;8.55;;;10.30;99.90;;;;;;5023612;28;20049;-71
2022/10/26 03:15:37;;;;;;;14.68;8.13;;;10.30;99.90;;;;;;5027171;28;20094;-71
2022/10/26 03:18:03;;;;;;;15.25;8.93;;;10.30;99.90;;;;;;5009547;28;20034;-71
2022/10/26 03:20:29;;;;;;;14.00;9.10;;;10.30;99.90;;;;;;5025166;28;20052;-71
2022/10/26 03:22:55;;;;;;;17.80;8.95;;;10.20;99.90;;;;;;5027523;28;20045;-71
2022/10/26 03:25:22;;;;;;;20.88;9.98;;;10.20;99.90;;;;;;5026548;28;20517;-70
2022/10/26 03:27:59;;;;;;;19.77;9.77;;;10.20;99.90;;;;;;5025364;28;20065;-71
2022/10/26 03:30:25;;;;;;;15.75;9.15;;;10.10;99.90;;;;;;5023238;28;20530;-70
2022/10/26 03:32:50;;;;;;;13.70;9.10;;;10.20;99.90;;;;;;5027657;28;20059;-71
2022/10/26 03:35:16;;;;;;;15.93;9.70;;;10.10;99.90;;;;;;5026963;28;20037;-70
2022/10/26 03:37:42;;;;;;;17.80;9.70;;;10.40;99.90;;;;;;5009300;28;20041;-70
2022/10/26 03:40:08;;;;;;;14.43;9.27;;;10.00;99.90;;;;;;5023886;28;20041;-71
2022/10/26 03:42:38;;;;;;;16.50;10.25;;;10.00;99.90;;;;;;5025810;28;20637;-70
2022/10/26 03:45:05;;;;;;;17.55;10.15;;;10.00;99.90;;;;;;5025121;28;20372;-71
2022/10/26 03:47:31;;;;;;;19.08;10.75;;;10.00;99.90;;;;;;5022089;28;20052;-70
2022/10/26 03:49:57;;;;;;;18.98;11.32;;;10.20;99.90;;;;;;5024263;28;20033;-71
2022/10/26 03:52:23;;;;;;;19.83;10.98;;;9.90;99.90;;;;;;5004814;28;20057;-71
2022/10/26 03:54:50;;;;;;;19.05;10.80;;;9.90;99.90;;;;;;5026008;28;20050;-71
2022/10/26 03:57:16;;;;;;;19.60;10.82;;;10.20;99.90;;;;;;5025483;28;20041;-71
2022/10/26 03:59:42;;;;;;;20.60;12.35;;;9.90;99.90;;;;;;5006791;28;20049;-71
2022/10/26 04:02:07;;;;;;;18.85;11.68;;;9.90;99.90;;;;;;5021865;28;20048;-71
2022/10/26 04:04:33;;;;;;;20.75;11.02;;;9.90;99.90;;;;;;5022635;28;20049;-72
2022/10/26 04:06:59;;;;;;;15.63;10.55;;;9.90;99.90;;;;;;5023185;28;20053;-71
2022/10/26 04:09:25;;;;;;;19.25;12.10;;;9.90;99.90;;;;;;5025746;28;20048;-71
2022/10/26 04:11:50;;;;;;;19.55;11.40;;;10.10;99.90;;;;;;5027942;28;20041;-71
2022/10/26 04:14:16;;;;;;;17.52;11.68;;;9.80;99.90;;;;;;5025306;28;20037;-71
2022/10/26 04:16:42;;;;;;;20.15;11.77;;;9.80;99.90;;;;;;5023308;28;20034;-71
2022/10/26 04:19:09;;;;;;;24.33;11.90;;;9.90;99.90;;;;;;5021260;28;20045;-71
2022/10/26 04:21:34;;;;;;;18.35;12.15;;;9.80;99.90;;;;;;5023088;28;20045;-72
2022/10/26 04:24:01;;;;;;;19.92;11.70;;;9.80;99.90;;;;;;5026718;28;20122;-72
2022/10/26 04:26:27;;;;;;;20.13;12.07;;;9.80;99.90;;;;;;5026093;28;20089;-73
2022/10/26 04:28:52;;;;;;;21.55;12.52;;;9.80;99.90;;;;;;5026506;28;20076;-71
2022/10/26 04:31:18;;;;;;;19.25;11.60;;;9.80;99.90;;;;;;5025683;28;20060;-71
2022/10/26 04:33:44;;;;;;;19.63;12.43;;;9.80;99.90;;;;;;5013502;28;20092;-71
2022/10/26 04:36:10;;;;;;;24.73;13.18;;;9.80;99.90;;;;;;5007407;28;20353;-72
2022/10/26 04:38:36;;;;;;;21.13;13.23;;;9.80;99.90;;;;;;5004088;28;20048;-70
2022/10/26 04:41:01;;;;;;;21.52;14.13;;;9.80;99.90;;;;;;5006373;28;20033;-72
2022/10/26 04:43:27;;;;;;;21.02;13.15;;;9.80;99.90;;;;;;5001519;28;20092;-71
2022/10/26 04:45:57;;;;;;;23.05;13.05;;;9.80;99.90;;;;;;5008495;28;20045;-71
2022/10/26 04:48:23;;;;;;;22.73;13.52;;;9.80;99.90;;;;;;5006658;28;20985;-70
2022/10/26 04:50:49;;;;;;;23.67;13.52;;;9.80;99.90;;;;;;5009195;28;20053;-71
2022/10/26 04:53:15;;;;;;;23.38;13.50;;;9.80;99.90;;;;;;5015934;28;20053;-71
2022/10/26 04:55:40;;;;;;;24.73;14.23;;;9.80;99.90;;;;;;5040851;28;20128;-71
2022/10/26 04:58:06;;;;;;;23.10;13.70;;;9.90;99.90;;;;;;5010052;28;20049;-71
2022/10/26 05:00:32;;;;;;;27.67;13.77;;;9.80;99.90;;;;;;5010255;28;20537;-71
2022/10/26 05:03:03;;;;;;;27.88;14.60;;;10.30;99.90;;;;;;5023311;28;20124;-71
2022/10/26 05:05:31;;;;;;;22.45;14.38;;;9.90;99.90;;;;;;5029382;28;20037;-71
2022/10/26 05:07:57;;;;;;;26.60;14.85;;;9.90;99.90;;;;;;5055679;28;20046;-71
2022/10/26 05:10:23;;;;;;;26.77;16.08;;;9.90;99.90;;;;;;5019106;28;20048;-71
2022/10/26 05:12:54;;;;;;;25.98;15.07;;;9.90;99.90;;;;;;5014536;28;20532;-70
2022/10/26 05:15:20;;;;;;;24.35;14.45;;;9.90;99.90;;;;;;5004032;28;20140;-71
2022/10/26 05:17:53;;;;;;;23.33;14.57;;;9.90;99.90;;;;;;5000147;28;20054;-71
2022/10/26 05:20:19;;;;;;;26.83;14.98;;;9.90;99.90;;;;;;5013617;28;20049;-71
2022/10/26 05:22:51;;;;;;;28.40;15.63;;;9.90;99.90;;;;;;5018403;28;20525;-72
2022/10/26 05:25:17;;;;;;;26.40;14.98;;;9.90;99.90;;;;;;5018868;28;20044;-71
2022/10/26 05:27:43;;;;;;;25.30;14.85;;;10.00;99.90;;;;;;5017111;28;20410;-71
2022/10/26 05:30:09;;;;;;;26.08;15.77;;;10.00;99.90;;;;;;5014428;28;20053;-71
2022/10/26 05:32:35;;;;;;;25.23;14.93;;;10.00;99.90;;;;;;5010616;28;20044;-70
2022/10/26 05:35:00;;;;;;;25.67;14.77;;;10.00;99.90;;;;;;5006350;28;20049;-71
2022/10/26 05:37:29;;;;;;;25.50;15.13;;;10.10;99.90;;;;;;5001539;28;20052;-70
2022/10/26 05:39:56;;;;;;;25.10;14.35;;;10.10;99.90;;;;;;5024342;28;20188;-70
2022/10/26 05:42:24;;;;;;;25.15;14.52;;;10.10;99.90;;;;;;5026479;28;22249;-70
2022/10/26 05:44:50;;;;;;;24.70;14.73;;;10.10;99.90;;;;;;5015205;28;20042;-70
2022/10/26 05:47:15;;;;;;;26.20;15.32;;;10.20;99.90;;;;;;5014351;28;20041;-70
2022/10/26 05:49:41;;;;;;;27.75;15.15;;;10.10;99.90;;;;;;5021181;28;20041;-71
2022/10/26 05:52:07;;;;;;;23.00;15.40;;;10.10;99.90;;;;;;5001548;28;20079;-70
2022/10/26 05:54:32;;;;;;;23.45;13.77;;;10.10;99.90;;;;;;5023730;28;20469;-70
2022/10/26 05:56:59;;;;;;;25.27;15.20;;;10.10;99.90;;;;;;5021634;28;20114;-71
2022/10/26 05:59:25;;;;;;;20.75;14.90;;;10.10;99.90;;;;;;5005634;28;21427;-71
2022/10/26 06:02:05;;;;;;;28.90;15.75;;;10.10;99.90;;;;;;5015666;28;20037;-72
2022/10/26 06:04:38;;;;;;;27.15;15.63;;;10.20;99.90;;;;;;5020657;28;20518;-71
2022/10/26 06:07:13;;;;;;;24.98;14.93;;;10.20;99.90;;;;;;5017951;28;20102;-72
2022/10/26 06:09:40;;;;;;;24.00;14.27;;;10.20;99.90;;;;;;5021068;28;20065;-72
2022/10/26 06:12:06;;;;;;;26.05;15.13;;;10.20;99.90;;;;;;5014514;28;20041;-72
2022/10/26 06:14:33;;;;;;;22.67;14.80;;;10.20;99.90;;;;;;5016364;28;20060;-72
2022/10/26 06:17:07;;;;;;;27.33;14.32;;;10.10;99.90;;;;;;5015574;28;20471;-72
2022/10/26 06:19:38;;;;;;;25.35;14.93;;;10.20;99.90;;;;;;5018583;28;20057;-72
2022/10/26 06:22:04;;;;;;;;;;;10.20;99.90;;;;;;5037016;28;20053;-72
2022/10/26 06:24:40;;;;;;;27.20;14.45;;;10.10;99.90;;;;;;5020509;28;20036;-71
2022/10/26 06:27:20;;;;;;;25.60;15.60;;;10.20;99.90;;;;;;5022023;28;20046;-71
2022/10/26 06:30:06;;;;;;;24.67;15.18;;;10.20;99.90;;;;;;5019009;28;20108;-71
2022/10/26 06:32:32;;;;;;;23.10;13.50;;;10.20;99.90;;;;;;5013924;28;20058;-71
2022/10/26 06:35:22;;;;;;;31.40;14.48;;;10.20;99.90;;;;;;5000038;28;20045;-72
2022/10/26 06:37:49;;;;;;;21.23;13.57;;;10.20;99.90;;;;;;5015288;28;20093;-72
2022/10/26 06:40:16;;;;;;;25.65;14.43;;;10.20;99.90;;;;;;5013792;28;20052;-72
2022/10/26 06:42:43;;;;;;;20.90;13.90;;;10.20;99.90;;;;;;4999170;28;20079;-70
2022/10/26 06:45:13;;;;;;;26.98;15.32;;;10.30;99.90;;;;;;5006746;28;20069;-71
2022/10/26 06:47:53;;;;;;;27.70;13.00;;;10.30;99.90;;;;;;5017701;28;20056;-71
2022/10/26 06:50:28;;;;;;;26.17;14.70;;;10.30;99.90;;;;;;5014480;28;20044;-71
2022/10/26 06:53:22;;;;;;;23.02;13.57;;;10.30;99.90;;;;;;5022622;28;20067;-71
2022/10/26 06:55:49;;;;;;;24.58;13.52;;;10.30;99.90;;;;;;5018444;28;20108;-71
2022/10/26 06:58:21;;;;;;;23.70;12.73;;;10.30;99.90;;;;;;5011409;28;20046;-71
2022/10/26 07:00:53;;;;;;;20.73;13.15;;;10.60;99.90;;;;;;5008233;28;20054;-71
2022/10/26 07:03:18;;;;;;;23.92;13.52;;;10.30;99.90;;;;;;5039307;28;20072;-71
2022/10/26 07:05:44;;;;;;;21.25;12.77;;;10.50;99.90;;;;;;5020838;28;20045;-71
2022/10/26 07:08:11;;;;;;;22.23;13.13;;;10.40;99.90;;;;;;5014553;28;20045;-71
2022/10/26 07:10:38;;;;;;;20.55;12.57;;;10.40;99.90;;;;;;5016610;28;20057;-71
2022/10/26 07:13:07;;;;;;;23.80;12.20;;;10.60;99.90;;;;;;5015734;28;20510;-71
2022/10/26 07:15:37;;;;;;;21.52;12.50;;;10.80;99.90;;;;;;5019281;28;20134;-71
2022/10/26 07:18:04;;;;;;;21.63;11.85;;;10.50;99.90;;;;;;5015463;28;20045;-71
2022/10/26 07:20:31;;;;;;;21.83;12.05;;;10.50;99.90;;;;;;5020490;28;20045;-71
2022/10/26 07:22:57;;;;;;;24.00;12.10;;;10.50;99.90;;;;;;5017148;28;20069;-71
2022/10/26 07:25:24;;;;;;;20.77;12.23;;;10.60;99.90;;;;;;5016125;28;20139;-71
2022/10/26 07:27:50;;;;;;;22.10;11.77;;;10.60;99.90;;;;;;5015571;28;20119;-71
2022/10/26 07:30:17;;;;;;;23.83;12.15;;;10.60;99.90;;;;;;5014941;28;20148;-71
2022/10/26 07:32:43;;;;;;;21.25;12.48;;;10.70;99.90;;;;;;5014556;28;20498;-70
2022/10/26 07:35:09;;;;;;;20.38;11.35;;;10.80;99.90;;;;;;5019580;28;20065;-71
2022/10/26 07:37:34;;;;;;;21.33;11.77;;;10.70;99.90;;;;;;5018827;28;20088;-71
2022/10/26 07:40:01;;;;;;;22.80;11.00;;;10.80;99.90;;;;;;5019278;28;20047;-72
2022/10/26 07:42:26;;;;;;;16.75;10.88;;;10.80;99.90;;;;;;5018732;28;20053;-71
2022/10/26 07:44:52;;;;;;;19.98;11.68;;;10.80;99.90;;;;;;5005437;28;20125;-71
2022/10/26 07:47:18;;;;;;;17.58;11.07;;;10.80;99.90;;;;;;5007882;28;20106;-70
2022/10/26 07:49:43;;;;;;;21.83;11.80;;;10.80;99.90;;;;;;5010507;28;20051;-71
2022/10/26 07:52:09;;;;;;;19.25;10.13;;;10.90;99.90;;;;;;5007768;28;20042;-71
2022/10/26 07:54:35;;;;;;;19.58;10.55;;;10.90;99.90;;;;;;5014169;28;20779;-71
2022/10/26 07:57:01;;;;;;;21.10;10.80;;;11.00;99.90;;;;;;5013734;28;20072;-72
2022/10/26 07:59:27;;;;;;;17.10;9.85;;;11.00;99.90;;;;;;5012936;28;20041;-71
2022/10/26 08:01:53;;;;;;;21.45;10.40;;;11.00;99.90;;;;;;5009155;28;20052;-71
2022/10/26 08:04:19;;;;;;;18.33;10.52;;;11.10;99.90;;;;;;5013851;28;20057;-71
2022/10/26 08:06:46;;;;;;;19.80;9.60;;;11.10;99.90;;;;;;5017147;28;20047;-71
2022/10/26 08:09:11;;;;;;;15.55;8.88;;;11.10;99.90;;;;;;5015296;28;20111;-72
2022/10/26 08:11:37;;;;;;;15.85;8.48;;;11.20;99.90;;;;;;5018538;28;20049;-71
2022/10/26 08:14:03;;;;;;;15.98;9.07;;;11.20;99.90;;;;;;5017343;28;20135;-71
2022/10/26 08:16:33;;;;;;;17.83;8.30;;;11.60;99.90;;;;;;5000855;28;20053;-73
2022/10/26 08:18:59;;;;;;;17.23;7.90;;;11.30;99.90;;;;;;5014485;28;20454;-71
2022/10/26 08:21:25;;;;;;;17.48;7.53;;;11.40;99.90;;;;;;5018208;28;20045;-72
2022/10/26 08:23:51;;;;;;;15.57;8.05;;;11.50;99.90;;;;;;5016989;28;20040;-71
2022/10/26 08:26:17;;;;;;;14.98;7.57;;;11.60;99.90;;;;;;5014380;28;20042;-71
2022/10/26 08:28:43;;;;;;;14.90;7.60;;;11.60;99.90;;;;;;5017823;28;20057;-71
2022/10/26 08:31:08;;;;;;;18.38;7.30;;;11.70;99.90;;;;;;5017216;28;20435;-72
2022/10/26 08:33:34;;;;;;;12.60;6.47;;;11.80;99.90;;;;;;5011597;28;20411;-71
2022/10/26 08:36:02;;;;;;;14.48;6.30;;;11.80;99.90;;;;;;5012502;28;20056;-72
2022/10/26 08:38:28;;;;;;;17.20;5.13;;;12.00;99.90;;;;;;5017463;28;20414;-72
2022/10/26 08:40:56;;;;;;;11.23;5.35;;;12.10;99.90;;;;;;5012922;28;20046;-72
2022/10/26 08:43:51;;;;;;;10.30;5.47;;;12.20;99.90;;;;;;5017758;28;20055;-72
2022/10/26 08:46:26;;;;;;;14.20;5.60;;;12.30;99.90;;;;;;4999423;28;20056;-71
2022/10/26 08:48:58;;;;;;;15.80;5.38;;;12.40;99.90;;;;;;5016692;28;20042;-71
2022/10/26 08:51:40;;;;;;;9.38;4.38;;;12.80;99.90;;;;;;5015344;28;20057;-71
2022/10/26 08:54:19;;;;;;;10.02;5.22;;;12.70;99.90;;;;;;5015805;28;20073;-71
2022/10/26 08:56:57;;;;;;;8.82;4.30;;;12.80;99.90;;;;;;5015410;28;20441;-72
2022/10/26 08:59:48;;;;;;;9.65;4.40;;;12.90;99.90;;;;;;5013630;28;20056;-72
2022/10/26 09:02:15;;;;;;;11.52;4.95;;;13.00;99.90;;;;;;5013115;28;20053;-72
2022/10/26 09:04:42;;;;;;;10.65;4.38;;;13.10;99.90;;;;;;5000288;28;20159;-72
2022/10/26 09:07:44;;;;;;;10.10;4.22;;;13.10;99.90;;;;;;5007096;28;20038;-72
2022/10/26 09:10:38;;;;;;;12.75;4.00;;;13.20;99.90;;;;;;5015382;28;20452;-72
2022/10/26 09:13:34;;;;;;;8.80;4.50;;;13.30;99.90;;;;;;5010743;28;20773;-72
2022/10/26 09:16:06;;;;;;;10.32;3.97;;;13.40;99.90;;;;;;4984219;28;20129;-72
2022/10/26 09:18:55;;;;;;;12.35;4.35;;;13.40;99.90;;;;;;4998951;28;20054;-72
2022/10/26 09:21:42;;;;;;;8.40;4.07;;;13.50;99.90;;;;;;5013416;28;20042;-72
2022/10/26 09:24:13;;;;;;;10.77;4.38;;;13.60;99.90;;;;;;5012095;28;20041;-72
2022/10/26 09:26:48;;;;;;;;;;;13.60;99.90;;;;;;5021094;28;20044;-72
2022/10/26 09:29:14;;;;;;;9.88;4.03;;;13.70;99.90;;;;;;5039356;28;20342;-72
2022/10/26 09:31:46;;;;;;;10.07;4.38;;;13.70;99.90;;;;;;5001776;28;20053;-71
2022/10/26 09:34:25;;;;;;;9.40;4.28;;;13.80;99.90;;;;;;5018706;28;20056;-71
2022/10/26 09:36:54;;;;;;;12.32;4.20;;;13.90;99.90;;;;;;5013777;28;20525;-71
2022/10/26 09:39:38;;;;;;;15.73;4.40;;;13.90;99.90;;;;;;5020196;28;20101;-70
2022/10/26 09:42:33;;;;;;;10.93;3.70;;;14.00;99.90;;;;;;5015357;28;20029;-71
2022/10/26 09:45:11;;;;;;;8.43;4.03;;;14.10;99.90;;;;;;5015699;28;20061;-71
2022/10/26 09:47:40;;;;;;;8.15;3.92;;;14.10;99.90;;;;;;5017853;28;20107;-71
2022/10/26 09:50:27;;;;;;;15.70;4.05;;;14.20;99.90;;;;;;5019525;28;20104;-70
2022/10/26 09:52:53;;;;;;;10.52;4.20;;;14.20;99.90;;;;;;5019970;28;20049;-71
2022/10/26 09:55:21;;;;;;;10.82;3.90;;;14.20;99.90;;;;;;5015621;28;20041;-71
2022/10/26 09:57:51;;;;;;;14.10;3.97;;;14.30;99.90;;;;;;5014457;28;20049;-71
2022/10/26 10:00:24;;;;;;;9.02;4.13;;;14.30;99.90;;;;;;5013950;28;20125;-71
2022/10/26 10:02:54;;;;;;;10.07;4.03;;;14.40;99.90;;;;;;5022061;28;20049;-72
2022/10/26 10:05:33;;;;;;;10.20;4.05;;;14.50;99.90;;;;;;5025449;28;20052;-71
2022/10/26 10:08:15;;;;;;;9.02;3.97;;;14.60;99.90;;;;;;5014176;28;20060;-71
2022/10/26 10:11:12;;;;;;;9.10;4.32;;;14.70;99.90;;;;;;5021524;28;20049;-71
2022/10/26 10:13:45;;;;;;;8.52;4.15;;;14.70;99.90;;;;;;5009435;28;20076;-71
2022/10/26 10:16:22;;;;;;;11.70;4.05;;;14.80;99.90;;;;;;5027752;28;20049;-71
2022/10/26 10:18:57;;;;;;;9.82;3.90;;;14.80;99.90;;;;;;5015182;28;20049;-71
2022/10/26 10:21:34;;;;;;;12.23;3.83;;;14.80;99.90;;;;;;5012149;28;20046;-71
2022/10/26 10:24:00;;;;;;;10.32;3.67;;;14.80;99.90;;;;;;5021601;28;20052;-71
2022/10/26 10:26:26;;;;;;;13.43;4.10;;;14.80;99.90;;;;;;5019755;28;20038;-71
2022/10/26 10:28:58;;;;;;;10.90;4.00;;;14.90;99.90;;;;;;5023618;28;20091;-71
2022/10/26 10:31:31;;;;;;;9.90;3.72;;;14.90;99.90;;;;;;5024557;28;20053;-71
2022/10/26 10:33:57;;;;;;;8.88;3.88;;;14.90;99.90;;;;;;5027486;28;20399;-71
2022/10/26 10:36:28;;;;;;;15.63;3.72;;;14.90;99.90;;;;;;5021040;28;20041;-71
2022/10/26 10:38:54;;;;;;;7.88;3.50;;;15.00;99.90;;;;;;5029709;28;20045;-70
2022/10/26 10:41:35;;;;;;;10.95;3.58;;;15.20;99.90;;;;;;5025186;28;20386;-71
2022/10/26 10:44:07;;;;;;;9.55;3.22;;;15.10;99.90;;;;;;5026970;28;20057;-71
2022/10/26 10:46:34;;;;;;;9.48;3.28;;;15.10;99.90;;;;;;5018042;28;20049;-73
2022/10/26 10:49:15;;;;;;;9.25;3.50;;;15.10;99.90;;;;;;5012315;28;20585;-71
2022/10/26 10:51:42;;;;;;;;;;;15.20;99.90;;;;;;5031139;28;20042;-71
2022/10/26 10:54:35;;;;;;;9.20;3.28;;;15.30;99.90;;;;;;5047205;28;19936;-71
2022/10/26 10:57:20;;;;;;;8.15;2.90;;;15.40;99.90;;;;;;5027608;28;20088;-70
2022/10/26 11:00:04;;;;;;;11.07;2.50;;;15.50;99.90;;;;;;5020586;28;20053;-72
2022/10/26 11:02:48;;;;;;;9.88;3.30;;;15.60;99.90;;;;;;5015621;28;20139;-71
2022/10/26 11:05:23;;;;;;;8.02;3.08;;;15.60;99.90;;;;;;5013434;28;20046;-72
2022/10/26 11:08:02;;;;;;;11.85;2.83;;;15.70;99.90;;;;;;5003441;28;20101;-71
2022/10/26 11:10:34;;;;;;;8.95;3.10;;;15.80;99.90;;;;;;5004277;28;20041;-72
2022/10/26 11:13:05;;;;;;;9.93;2.95;;;16.00;99.90;;;;;;5017157;28;20045;-73
2022/10/26 11:15:36;;;;;;;13.25;2.50;;;16.00;99.90;;;;;;5020399;28;20049;-71
2022/10/26 11:18:03;;;;;;;9.70;2.63;;;16.10;99.90;;;;;;5023607;28;20041;-72
2022/10/26 11:20:31;;;;;;;8.70;2.15;;;16.10;99.90;;;;;;5013639;28;20558;-71
2022/10/26 11:23:21;;;;;;;9.52;2.50;;;16.10;99.90;;;;;;5020353;28;20048;-71
2022/10/26 11:25:50;;;;;;;9.05;2.38;;;16.10;99.90;;;;;;5022300;28;20409;-72
2022/10/26 11:28:40;;;;;;;6.97;2.53;;;16.20;99.90;;;;;;5004531;28;20037;-72
2022/10/26 11:31:13;;;;;;;9.50;2.50;;;16.20;99.90;;;;;;5014204;28;20049;-71
2022/10/26 11:34:10;;;;;;;9.30;2.45;;;16.30;99.90;;;;;;5002428;28;20050;-71
2022/10/26 11:36:37;;;;;;;6.40;2.35;;;16.30;99.90;;;;;;5007594;28;20124;-71
2022/10/26 11:39:16;;;;;;;11.23;2.80;;;16.40;99.90;;;;;;5014961;28;20679;-71
2022/10/26 11:41:52;;;;;;;8.63;2.17;;;16.50;99.90;;;;;;5029023;28;20041;-71
2022/10/26 11:44:42;;;;;;;10.15;2.67;;;16.50;99.90;;;;;;5021115;28;20763;-71
2022/10/26 11:47:34;;;;;;;11.18;2.53;;;16.60;99.90;;;;;;5008232;28;20084;-71
2022/10/26 11:50:12;;;;;;;7.53;2.72;;;16.60;99.90;;;;;;5025805;28;20525;-71
2022/10/26 11:52:47;;;;;;;8.45;2.30;;;16.70;99.90;;;;;;5023385;28;20049;-71
2022/10/26 11:55:13;;;;;;;7.88;2.42;;;16.70;99.90;;;;;;5024270;28;20053;-71
2022/10/26 11:57:40;;;;;;;9.40;2.72;;;16.80;99.90;;;;;;5027036;28;20406;-71
2022/10/26 12:00:16;;;;;;;7.90;2.38;;;16.80;99.90;;;;;;5023993;28;20049;-71
2022/10/26 12:02:45;;;;;;;8.40;2.40;;;16.90;99.90;;;;;;5041385;28;20037;-71
2022/10/26 12:05:38;;;;;;;9.20;2.60;;;16.90;99.90;;;;;;5024017;28;20144;-71
2022/10/26 12:08:23;;;;;;;9.23;2.67;;;17.00;99.90;;;;;;5045244;28;20493;-71
2022/10/26 12:10:57;;;;;;;9.35;2.50;;;17.00;99.90;;;;;;5016817;28;20030;-71
2022/10/26 12:13:31;;;;;;;9.10;2.78;;;17.00;99.90;;;;;;5035281;28;20041;-71
2022/10/26 12:16:23;;;;;;;12.07;2.80;;;16.90;99.90;;;;;;5027006;28;20053;-71
2022/10/26 12:18:51;;;;;;;9.75;3.05;;;17.00;99.90;;;;;;5013615;28;20059;-71
2022/10/26 12:21:17;;;;;;;8.48;3.00;;;17.00;99.90;;;;;;5019672;28;20045;-71
2022/10/26 12:24:19;;;;;;;11.80;3.15;;;17.00;99.90;;;;;;5038789;28;20033;-71
2022/10/26 12:26:56;;;;;;;12.80;3.42;;;17.10;99.90;;;;;;5032092;28;20045;-71
2022/10/26 12:29:44;;;;;;;10.35;2.85;;;17.10;99.90;;;;;;5033635;28;20053;-72
2022/10/26 12:32:39;;;;;;;8.43;2.70;;;17.10;99.90;;;;;;5038588;28;20167;-71
2022/10/26 12:35:36;;;;;;;11.45;3.70;;;17.10;99.90;;;;;;4996386;28;20054;-71
2022/10/26 12:38:23;;;;;;;13.52;3.22;;;17.20;99.90;;;;;;5041050;28;20056;-71
2022/10/26 12:41:05;;;;;;;11.27;3.25;;;17.10;99.90;;;;;;5041807;28;20049;-71
2022/10/26 12:43:37;;;;;;;10.05;3.20;;;17.10;99.90;;;;;;5036176;28;20485;-71
2022/10/26 12:46:12;;;;;;;10.40;3.40;;;17.10;99.90;;;;;;5049365;28;20050;-72
2022/10/26 12:48:48;;;;;;;7.88;2.92;;;17.10;99.90;;;;;;5026234;28;20188;-71
2022/10/26 12:51:20;;;;;;;13.20;4.18;;;17.10;99.90;;;;;;5039457;28;20044;-71
2022/10/26 12:54:16;;;;;;;8.93;3.47;;;17.10;99.90;;;;;;5039264;28;20064;-71
2022/10/26 12:56:58;;;;;;;13.15;3.97;;;17.10;99.90;;;;;;5045313;28;20053;-71
2022/10/26 13:00:00;;;;;;;11.48;3.97;;;17.20;99.90;;;;;;5027681;28;20045;-71